Terminal Aerodrome Forecast
Issued by NWS

Home | Current Version | Previous Version | Text Only | Print | Product List | Glossary On
Versions: 1 2 3 4 5 6 7 8 9 10 11 12 13 14 15 16 17 18 19 20 21 22
000
FTUS46 KSEW 281100
TAFCLM
TAF
KCLM 281137Z 2812/2912 31012G20KT P6SM -RA SCT015 BKN030 OVC040
      TEMPO 2812/2816 2SM RA BR BKN005 OVC025
     FM282000 27010KT P6SM SCT040
     FM290000 27012KT P6SM BKN040
     FM290900 03008KT P6SM BKN025 BKN070
      TEMPO 2909/2912 -SHSN OVC020=

USA.gov is the U.S. government's official web portal to all federal, state and local government web resources and services.